sensor_id;sensor_type;location;lat;lon;timestamp;P1;durP1;ratioP1;P2;durP2;ratioP2
54875;SDS011;40764;48.472;8.166;2022-07-05T00:00:08;10.45;;;2.60;;
54875;SDS011;40764;48.472;8.166;2022-07-05T00:06:09;6.87;;;2.87;;
54875;SDS011;40764;48.472;8.166;2022-07-05T00:12:10;3.10;;;2.37;;
54875;SDS011;40764;48.472;8.166;2022-07-05T00:18:13;11.15;;;2.22;;
54875;SDS011;40764;48.472;8.166;2022-07-05T00:24:13;4.13;;;2.47;;
54875;SDS011;40764;48.472;8.166;2022-07-05T00:30:13;9.13;;;2.60;;
54875;SDS011;40764;48.472;8.166;2022-07-05T00:36:14;6.10;;;1.97;;
54875;SDS011;40764;48.472;8.166;2022-07-05T00:42:14;6.10;;;2.63;;
54875;SDS011;40764;48.472;8.166;2022-07-05T00:48:15;6.20;;;2.60;;
54875;SDS011;40764;48.472;8.166;2022-07-05T00:54:15;5.65;;;2.47;;
54875;SDS011;40764;48.472;8.166;2022-07-05T01:00:16;6.57;;;2.23;;
54875;SDS011;40764;48.472;8.166;2022-07-05T01:06:16;2.22;;;2.03;;
54875;SDS011;40764;48.472;8.166;2022-07-05T01:12:17;8.20;;;2.30;;
54875;SDS011;40764;48.472;8.166;2022-07-05T01:18:19;8.02;;;2.47;;
54875;SDS011;40764;48.472;8.166;2022-07-05T01:24:20;6.85;;;2.85;;
54875;SDS011;40764;48.472;8.166;2022-07-05T01:30:21;3.60;;;2.30;;
54875;SDS011;40764;48.472;8.166;2022-07-05T01:36:21;4.97;;;2.42;;
54875;SDS011;40764;48.472;8.166;2022-07-05T01:42:22;4.00;;;2.70;;
54875;SDS011;40764;48.472;8.166;2022-07-05T01:48:23;3.83;;;2.60;;
54875;SDS011;40764;48.472;8.166;2022-07-05T01:54:24;4.27;;;2.50;;
54875;SDS011;40764;48.472;8.166;2022-07-05T02:00:24;5.25;;;2.55;;
54875;SDS011;40764;48.472;8.166;2022-07-05T02:06:24;3.53;;;2.17;;
54875;SDS011;40764;48.472;8.166;2022-07-05T02:12:25;2.65;;;2.38;;
54875;SDS011;40764;48.472;8.166;2022-07-05T02:18:25;4.85;;;2.35;;
54875;SDS011;40764;48.472;8.166;2022-07-05T02:24:25;7.97;;;2.42;;
54875;SDS011;40764;48.472;8.166;2022-07-05T02:30:26;5.13;;;2.90;;
54875;SDS011;40764;48.472;8.166;2022-07-05T02:36:26;4.00;;;2.17;;
54875;SDS011;40764;48.472;8.166;2022-07-05T02:42:27;4.97;;;3.17;;
54875;SDS011;40764;48.472;8.166;2022-07-05T02:48:27;10.05;;;3.78;;
54875;SDS011;40764;48.472;8.166;2022-07-05T02:54:27;7.67;;;3.10;;
54875;SDS011;40764;48.472;8.166;2022-07-05T03:00:28;3.67;;;2.67;;
54875;SDS011;40764;48.472;8.166;2022-07-05T03:06:28;3.88;;;2.78;;
54875;SDS011;40764;48.472;8.166;2022-07-05T03:12:28;3.92;;;3.03;;
54875;SDS011;40764;48.472;8.166;2022-07-05T03:18:29;3.88;;;2.80;;
54875;SDS011;40764;48.472;8.166;2022-07-05T03:24:29;5.53;;;2.70;;
54875;SDS011;40764;48.472;8.166;2022-07-05T03:30:29;3.92;;;3.08;;
54875;SDS011;40764;48.472;8.166;2022-07-05T03:36:30;4.18;;;2.53;;
54875;SDS011;40764;48.472;8.166;2022-07-05T03:42:30;8.18;;;2.90;;
54875;SDS011;40764;48.472;8.166;2022-07-05T03:48:31;6.28;;;3.28;;
54875;SDS011;40764;48.472;8.166;2022-07-05T03:54:31;13.73;;;6.10;;
54875;SDS011;40764;48.472;8.166;2022-07-05T04:00:31;18.75;;;8.65;;
54875;SDS011;40764;48.472;8.166;2022-07-05T04:06:33;22.85;;;8.45;;
54875;SDS011;40764;48.472;8.166;2022-07-05T04:12:34;33.28;;;11.50;;
54875;SDS011;40764;48.472;8.166;2022-07-05T04:18:34;52.10;;;16.10;;
54875;SDS011;40764;48.472;8.166;2022-07-05T04:24:35;50.83;;;17.20;;
54875;SDS011;40764;48.472;8.166;2022-07-05T04:30:56;52.85;;;17.75;;
54875;SDS011;40764;48.472;8.166;2022-07-05T04:36:57;28.70;;;9.02;;
54875;SDS011;40764;48.472;8.166;2022-07-05T04:42:57;39.08;;;12.63;;
54875;SDS011;40764;48.472;8.166;2022-07-05T04:48:58;41.58;;;12.48;;
54875;SDS011;40764;48.472;8.166;2022-07-05T04:54:58;41.03;;;13.13;;
54875;SDS011;40764;48.472;8.166;2022-07-05T05:00:59;32.17;;;12.15;;
54875;SDS011;40764;48.472;8.166;2022-07-05T05:06:59;33.20;;;9.63;;
54875;SDS011;40764;48.472;8.166;2022-07-05T05:13:00;33.53;;;11.20;;
54875;SDS011;40764;48.472;8.166;2022-07-05T05:19:00;23.20;;;8.80;;
54875;SDS011;40764;48.472;8.166;2022-07-05T05:25:01;13.00;;;5.37;;
54875;SDS011;40764;48.472;8.166;2022-07-05T05:31:01;13.75;;;5.10;;
54875;SDS011;40764;48.472;8.166;2022-07-05T05:37:02;6.60;;;3.95;;
54875;SDS011;40764;48.472;8.166;2022-07-05T05:43:02;3.73;;;2.50;;
54875;SDS011;40764;48.472;8.166;2022-07-05T05:49:03;7.73;;;3.00;;
54875;SDS011;40764;48.472;8.166;2022-07-05T05:55:04;8.97;;;3.13;;
54875;SDS011;40764;48.472;8.166;2022-07-05T06:01:06;6.38;;;2.90;;
54875;SDS011;40764;48.472;8.166;2022-07-05T06:07:06;4.80;;;2.47;;
54875;SDS011;40764;48.472;8.166;2022-07-05T06:13:07;11.20;;;2.83;;
54875;SDS011;40764;48.472;8.166;2022-07-05T06:19:09;5.75;;;2.85;;
54875;SDS011;40764;48.472;8.166;2022-07-05T06:25:09;8.75;;;2.67;;
54875;SDS011;40764;48.472;8.166;2022-07-05T06:31:10;4.27;;;2.53;;
54875;SDS011;40764;48.472;8.166;2022-07-05T06:37:10;6.10;;;2.97;;
54875;SDS011;40764;48.472;8.166;2022-07-05T06:43:12;5.40;;;2.60;;
54875;SDS011;40764;48.472;8.166;2022-07-05T06:49:13;4.68;;;2.20;;
54875;SDS011;40764;48.472;8.166;2022-07-05T06:55:13;8.40;;;2.10;;
54875;SDS011;40764;48.472;8.166;2022-07-05T07:01:13;11.73;;;3.22;;
54875;SDS011;40764;48.472;8.166;2022-07-05T07:07:14;9.40;;;2.67;;
54875;SDS011;40764;48.472;8.166;2022-07-05T07:13:33;9.77;;;2.00;;
54875;SDS011;40764;48.472;8.166;2022-07-05T07:19:34;6.70;;;2.63;;
54875;SDS011;40764;48.472;8.166;2022-07-05T07:25:34;4.53;;;1.60;;
54875;SDS011;40764;48.472;8.166;2022-07-05T07:31:34;10.75;;;2.33;;
54875;SDS011;40764;48.472;8.166;2022-07-05T07:37:35;10.77;;;2.33;;
54875;SDS011;40764;48.472;8.166;2022-07-05T07:43:36;6.77;;;1.80;;
54875;SDS011;40764;48.472;8.166;2022-07-05T07:49:36;6.13;;;2.00;;
54875;SDS011;40764;48.472;8.166;2022-07-05T07:55:37;3.20;;;1.60;;
54875;SDS011;40764;48.472;8.166;2022-07-05T08:01:37;5.13;;;2.13;;
54875;SDS011;40764;48.472;8.166;2022-07-05T08:07:38;9.03;;;2.03;;
54875;SDS011;40764;48.472;8.166;2022-07-05T08:13:38;4.57;;;1.60;;
54875;SDS011;40764;48.472;8.166;2022-07-05T08:19:42;4.22;;;1.95;;
54875;SDS011;40764;48.472;8.166;2022-07-05T08:26:01;7.00;;;2.30;;
54875;SDS011;40764;48.472;8.166;2022-07-05T08:32:02;11.57;;;2.47;;
54875;SDS011;40764;48.472;8.166;2022-07-05T08:38:03;4.40;;;2.10;;
54875;SDS011;40764;48.472;8.166;2022-07-05T08:44:03;4.37;;;2.20;;
54875;SDS011;40764;48.472;8.166;2022-07-05T08:50:05;5.43;;;2.05;;
54875;SDS011;40764;48.472;8.166;2022-07-05T08:56:07;14.15;;;2.30;;
54875;SDS011;40764;48.472;8.166;2022-07-05T09:02:10;5.78;;;1.70;;
54875;SDS011;40764;48.472;8.166;2022-07-05T09:08:15;2.35;;;1.58;;
54875;SDS011;40764;48.472;8.166;2022-07-05T09:14:20;9.27;;;1.90;;
54875;SDS011;40764;48.472;8.166;2022-07-05T09:20:22;4.43;;;2.03;;
54875;SDS011;40764;48.472;8.166;2022-07-05T09:32:36;5.43;;;1.88;;
54875;SDS011;40764;48.472;8.166;2022-07-05T09:38:37;6.25;;;1.83;;
54875;SDS011;40764;48.472;8.166;2022-07-05T09:44:38;12.37;;;2.37;;
54875;SDS011;40764;48.472;8.166;2022-07-05T09:50:42;5.90;;;1.90;;
54875;SDS011;40764;48.472;8.166;2022-07-05T09:56:44;3.28;;;1.52;;
54875;SDS011;40764;48.472;8.166;2022-07-05T10:02:49;5.38;;;1.88;;
54875;SDS011;40764;48.472;8.166;2022-07-05T10:08:54;1.98;;;1.60;;
54875;SDS011;40764;48.472;8.166;2022-07-05T10:14:54;6.13;;;1.35;;
54875;SDS011;40764;48.472;8.166;2022-07-05T10:20:59;7.63;;;1.90;;
54875;SDS011;40764;48.472;8.166;2022-07-05T10:27:03;3.90;;;1.38;;
54875;SDS011;40764;48.472;8.166;2022-07-05T10:33:06;8.45;;;1.50;;
54875;SDS011;40764;48.472;8.166;2022-07-05T10:39:07;4.47;;;1.42;;
54875;SDS011;40764;48.472;8.166;2022-07-05T10:51:22;6.47;;;1.40;;
54875;SDS011;40764;48.472;8.166;2022-07-05T10:57:24;2.55;;;0.90;;
54875;SDS011;40764;48.472;8.166;2022-07-05T11:03:35;1.83;;;1.03;;
54875;SDS011;40764;48.472;8.166;2022-07-05T11:15:37;3.63;;;1.38;;
54875;SDS011;40764;48.472;8.166;2022-07-05T11:21:38;3.60;;;1.10;;
54875;SDS011;40764;48.472;8.166;2022-07-05T11:28:05;3.45;;;1.48;;
54875;SDS011;40764;48.472;8.166;2022-07-05T11:34:13;3.30;;;1.20;;
54875;SDS011;40764;48.472;8.166;2022-07-05T11:46:15;1.90;;;1.10;;
54875;SDS011;40764;48.472;8.166;2022-07-05T11:52:24;4.90;;;1.08;;
54875;SDS011;40764;48.472;8.166;2022-07-05T11:58:31;4.40;;;1.33;;
54875;SDS011;40764;48.472;8.166;2022-07-05T12:10:33;3.72;;;1.20;;
54875;SDS011;40764;48.472;8.166;2022-07-05T12:17:11;6.38;;;1.10;;
54875;SDS011;40764;48.472;8.166;2022-07-05T12:23:12;8.40;;;1.00;;
54875;SDS011;40764;48.472;8.166;2022-07-05T12:29:13;2.55;;;0.70;;
54875;SDS011;40764;48.472;8.166;2022-07-05T12:41:43;3.80;;;1.40;;
54875;SDS011;40764;48.472;8.166;2022-07-05T12:47:50;4.32;;;1.20;;
54875;SDS011;40764;48.472;8.166;2022-07-05T12:53:53;6.97;;;2.42;;
54875;SDS011;40764;48.472;8.166;2022-07-05T13:00:12;5.20;;;1.05;;
54875;SDS011;40764;48.472;8.166;2022-07-05T13:06:16;4.05;;;0.90;;
54875;SDS011;40764;48.472;8.166;2022-07-05T13:12:20;6.80;;;1.30;;
54875;SDS011;40764;48.472;8.166;2022-07-05T13:18:25;6.32;;;1.02;;
54875;SDS011;40764;48.472;8.166;2022-07-05T13:24:26;5.28;;;0.85;;
54875;SDS011;40764;48.472;8.166;2022-07-05T13:30:27;2.00;;;1.02;;
54875;SDS011;40764;48.472;8.166;2022-07-05T13:36:27;1.67;;;0.97;;
54875;SDS011;40764;48.472;8.166;2022-07-05T13:42:27;1.37;;;0.90;;
54875;SDS011;40764;48.472;8.166;2022-07-05T13:48:28;1.43;;;0.90;;
54875;SDS011;40764;48.472;8.166;2022-07-05T13:54:28;3.55;;;0.93;;
54875;SDS011;40764;48.472;8.166;2022-07-05T14:00:29;3.17;;;1.15;;
54875;SDS011;40764;48.472;8.166;2022-07-05T14:06:30;3.37;;;0.87;;
54875;SDS011;40764;48.472;8.166;2022-07-05T14:18:31;2.87;;;1.07;;
54875;SDS011;40764;48.472;8.166;2022-07-05T14:24:32;3.05;;;1.10;;
54875;SDS011;40764;48.472;8.166;2022-07-05T14:36:36;2.40;;;0.90;;
54875;SDS011;40764;48.472;8.166;2022-07-05T14:48:37;3.40;;;1.00;;
54875;SDS011;40764;48.472;8.166;2022-07-05T15:00:37;2.72;;;0.88;;
54875;SDS011;40764;48.472;8.166;2022-07-05T15:12:40;6.95;;;1.10;;
54875;SDS011;40764;48.472;8.166;2022-07-05T15:18:41;0.80;;;0.77;;
54875;SDS011;40764;48.472;8.166;2022-07-05T15:24:41;2.58;;;1.02;;
54875;SDS011;40764;48.472;8.166;2022-07-05T15:36:42;5.40;;;0.82;;
54875;SDS011;40764;48.472;8.166;2022-07-05T15:42:42;2.87;;;1.10;;
54875;SDS011;40764;48.472;8.166;2022-07-05T15:54:43;5.97;;;1.00;;
54875;SDS011;40764;48.472;8.166;2022-07-05T16:00:44;1.97;;;0.97;;
54875;SDS011;40764;48.472;8.166;2022-07-05T16:06:44;1.60;;;0.90;;
54875;SDS011;40764;48.472;8.166;2022-07-05T16:12:44;2.47;;;1.00;;
54875;SDS011;40764;48.472;8.166;2022-07-05T16:18:46;6.93;;;2.53;;
54875;SDS011;40764;48.472;8.166;2022-07-05T16:24:47;3.10;;;1.02;;
54875;SDS011;40764;48.472;8.166;2022-07-05T16:30:47;2.50;;;0.90;;
54875;SDS011;40764;48.472;8.166;2022-07-05T16:36:48;5.50;;;0.90;;
54875;SDS011;40764;48.472;8.166;2022-07-05T16:42:48;2.70;;;1.10;;
54875;SDS011;40764;48.472;8.166;2022-07-05T16:48:48;0.90;;;0.90;;
54875;SDS011;40764;48.472;8.166;2022-07-05T16:54:49;2.83;;;0.98;;
54875;SDS011;40764;48.472;8.166;2022-07-05T17:00:50;4.78;;;1.15;;
54875;SDS011;40764;48.472;8.166;2022-07-05T17:06:50;2.97;;;1.10;;
54875;SDS011;40764;48.472;8.166;2022-07-05T17:12:50;5.32;;;0.80;;
54875;SDS011;40764;48.472;8.166;2022-07-05T17:18:51;1.60;;;1.00;;
54875;SDS011;40764;48.472;8.166;2022-07-05T17:24:52;5.55;;;1.00;;
54875;SDS011;40764;48.472;8.166;2022-07-05T17:30:53;7.13;;;1.65;;
54875;SDS011;40764;48.472;8.166;2022-07-05T17:36:53;3.58;;;1.02;;
54875;SDS011;40764;48.472;8.166;2022-07-05T17:42:54;1.27;;;0.88;;
54875;SDS011;40764;48.472;8.166;2022-07-05T17:48:54;5.20;;;0.90;;
54875;SDS011;40764;48.472;8.166;2022-07-05T17:54:56;2.60;;;1.13;;
54875;SDS011;40764;48.472;8.166;2022-07-05T18:00:56;4.28;;;1.10;;
54875;SDS011;40764;48.472;8.166;2022-07-05T18:06:57;1.80;;;1.23;;
54875;SDS011;40764;48.472;8.166;2022-07-05T18:12:57;4.43;;;1.70;;
54875;SDS011;40764;48.472;8.166;2022-07-05T18:18:57;4.07;;;1.10;;
54875;SDS011;40764;48.472;8.166;2022-07-05T18:24:58;5.53;;;1.95;;
54875;SDS011;40764;48.472;8.166;2022-07-05T18:30:58;3.53;;;1.10;;
54875;SDS011;40764;48.472;8.166;2022-07-05T18:36:59;4.40;;;1.05;;
54875;SDS011;40764;48.472;8.166;2022-07-05T18:42:59;2.43;;;1.10;;
54875;SDS011;40764;48.472;8.166;2022-07-05T18:48:59;3.30;;;1.10;;
54875;SDS011;40764;48.472;8.166;2022-07-05T18:55:01;3.83;;;0.93;;
54875;SDS011;40764;48.472;8.166;2022-07-05T19:01:03;2.50;;;1.33;;
54875;SDS011;40764;48.472;8.166;2022-07-05T19:07:03;13.10;;;2.65;;
54875;SDS011;40764;48.472;8.166;2022-07-05T19:13:22;8.10;;;1.42;;
54875;SDS011;40764;48.472;8.166;2022-07-05T19:19:41;10.10;;;5.55;;
54875;SDS011;40764;48.472;8.166;2022-07-05T19:25:41;7.23;;;2.53;;
54875;SDS011;40764;48.472;8.166;2022-07-05T19:31:42;6.10;;;2.10;;
54875;SDS011;40764;48.472;8.166;2022-07-05T19:37:43;3.37;;;1.87;;
54875;SDS011;40764;48.472;8.166;2022-07-05T19:43:43;3.70;;;2.47;;
54875;SDS011;40764;48.472;8.166;2022-07-05T19:49:43;6.07;;;2.97;;
54875;SDS011;40764;48.472;8.166;2022-07-05T19:55:44;3.85;;;2.00;;
54875;SDS011;40764;48.472;8.166;2022-07-05T20:01:44;23.85;;;21.27;;
54875;SDS011;40764;48.472;8.166;2022-07-05T20:07:44;59.95;;;30.33;;
54875;SDS011;40764;48.472;8.166;2022-07-05T20:13:45;53.90;;;27.53;;
54875;SDS011;40764;48.472;8.166;2022-07-05T20:19:46;39.30;;;23.63;;
54875;SDS011;40764;48.472;8.166;2022-07-05T20:25:47;7.30;;;1.97;;
54875;SDS011;40764;48.472;8.166;2022-07-05T20:31:47;60.53;;;23.17;;
54875;SDS011;40764;48.472;8.166;2022-07-05T20:37:48;7.60;;;2.00;;
54875;SDS011;40764;48.472;8.166;2022-07-05T20:43:48;7.47;;;4.27;;
54875;SDS011;40764;48.472;8.166;2022-07-05T20:49:49;24.83;;;3.60;;
54875;SDS011;40764;48.472;8.166;2022-07-05T20:55:49;9.20;;;3.33;;
54875;SDS011;40764;48.472;8.166;2022-07-05T21:01:52;10.43;;;6.35;;
54875;SDS011;40764;48.472;8.166;2022-07-05T21:07:52;6.30;;;3.30;;
54875;SDS011;40764;48.472;8.166;2022-07-05T21:13:52;4.32;;;2.20;;
54875;SDS011;40764;48.472;8.166;2022-07-05T21:19:53;8.57;;;2.88;;
54875;SDS011;40764;48.472;8.166;2022-07-05T21:25:53;13.10;;;2.85;;
54875;SDS011;40764;48.472;8.166;2022-07-05T21:31:54;10.02;;;2.70;;
54875;SDS011;40764;48.472;8.166;2022-07-05T21:37:55;10.07;;;2.00;;
54875;SDS011;40764;48.472;8.166;2022-07-05T21:43:55;4.47;;;1.90;;
54875;SDS011;40764;48.472;8.166;2022-07-05T21:49:56;6.10;;;2.30;;
54875;SDS011;40764;48.472;8.166;2022-07-05T21:55:56;3.80;;;2.27;;
54875;SDS011;40764;48.472;8.166;2022-07-05T22:01:56;4.97;;;1.85;;
54875;SDS011;40764;48.472;8.166;2022-07-05T22:08:15;2.28;;;1.25;;
54875;SDS011;40764;48.472;8.166;2022-07-05T22:14:16;5.03;;;2.20;;
54875;SDS011;40764;48.472;8.166;2022-07-05T22:20:16;7.20;;;1.80;;
54875;SDS011;40764;48.472;8.166;2022-07-05T22:26:17;5.50;;;1.77;;
54875;SDS011;40764;48.472;8.166;2022-07-05T22:32:17;4.47;;;1.67;;
54875;SDS011;40764;48.472;8.166;2022-07-05T22:38:18;4.53;;;2.00;;
54875;SDS011;40764;48.472;8.166;2022-07-05T22:44:18;3.97;;;1.70;;
54875;SDS011;40764;48.472;8.166;2022-07-05T22:50:19;9.70;;;2.20;;
54875;SDS011;40764;48.472;8.166;2022-07-05T22:56:19;16.02;;;2.15;;
54875;SDS011;40764;48.472;8.166;2022-07-05T23:02:19;5.85;;;2.10;;
54875;SDS011;40764;48.472;8.166;2022-07-05T23:08:20;8.93;;;1.93;;
54875;SDS011;40764;48.472;8.166;2022-07-05T23:14:20;6.25;;;2.15;;
54875;SDS011;40764;48.472;8.166;2022-07-05T23:20:21;4.60;;;2.15;;
54875;SDS011;40764;48.472;8.166;2022-07-05T23:26:21;3.83;;;1.88;;
54875;SDS011;40764;48.472;8.166;2022-07-05T23:32:22;6.15;;;2.33;;
54875;SDS011;40764;48.472;8.166;2022-07-05T23:38:22;5.27;;;2.00;;
54875;SDS011;40764;48.472;8.166;2022-07-05T23:44:23;4.70;;;2.33;;
54875;SDS011;40764;48.472;8.166;2022-07-05T23:50:23;7.67;;;2.17;;
54875;SDS011;40764;48.472;8.166;2022-07-05T23:56:23;8.63;;;2.60;;
